Time,TemperatureF,DewpointF,PressureIn,WindDirection,WindDirectionDegrees,WindSpeedMPH,WindSpeedGustMPH,Humidity,HourlyPrecipIn,Conditions,Clouds,dailyrainin,SolarRadiationWatts/m^2,SoftwareType,DateUTC
2013-02-23 00:01:00,26.0,15.0,-100.00,North,-999,-999.0,14.0,63,0.00,,,-99.99,0.000000,,2013-02-23 07:01:00,
2013-02-23 00:11:00,26.0,16.0,-100.00,North,-999,-999.0,11.0,65,0.00,,,-99.99,0.000000,,2013-02-23 07:11:00,
2013-02-23 00:21:00,27.0,15.0,-100.00,North,-999,-999.0,14.0,60,0.00,,,-99.99,0.000000,,2013-02-23 07:21:00,
2013-02-23 00:31:00,28.0,16.0,-100.00,North,-999,-999.0,18.0,60,0.00,,,-99.99,0.000000,,2013-02-23 07:31:00,
2013-02-23 00:41:00,27.0,15.0,-100.00,North,-999,-999.0,18.0,60,0.00,,,-99.99,0.000000,,2013-02-23 07:41:00,
2013-02-23 00:50:00,26.0,15.0,-100.00,North,-999,-999.0,19.0,63,0.00,,,-99.99,0.000000,,2013-02-23 07:50:00,
2013-02-23 00:51:00,27.0,15.0,-100.00,North,-999,-999.0,19.0,61,0.00,,,-99.99,0.000000,,2013-02-23 07:51:00,
2013-02-23 01:01:00,26.0,15.0,-100.00,North,-999,-999.0,19.0,62,0.00,,,-99.99,0.000000,,2013-02-23 08:01:00,
2013-02-23 01:11:00,26.0,15.0,-100.00,North,-999,-999.0,19.0,63,0.00,,,-99.99,0.000000,,2013-02-23 08:11:00,
2013-02-23 01:21:00,26.0,15.0,-100.00,North,-999,-999.0,19.0,63,0.00,,,-99.99,0.000000,,2013-02-23 08:21:00,
2013-02-23 01:31:00,26.0,15.0,-100.00,North,-999,-999.0,19.0,63,0.00,,,-99.99,0.000000,,2013-02-23 08:31:00,
2013-02-23 01:41:00,26.0,15.0,-100.00,North,-999,-999.0,19.0,63,0.00,,,-99.99,0.000000,,2013-02-23 08:41:00,
2013-02-23 02:22:00,27.0,15.0,-100.00,North,-999,-999.0,15.0,61,0.00,,,-99.99,0.000000,,2013-02-23 09:22:00,
2013-02-23 02:32:00,28.0,16.0,-100.00,North,-999,-999.0,15.0,60,0.00,,,-99.99,0.000000,,2013-02-23 09:32:00,
2013-02-23 02:42:00,27.0,16.0,-100.00,North,-999,-999.0,16.0,64,0.00,,,-99.99,0.000000,,2013-02-23 09:42:00,
2013-02-23 02:52:00,27.0,16.0,-100.00,North,-999,-999.0,16.0,63,0.00,,,-99.99,0.000000,,2013-02-23 09:52:00,
2013-02-23 03:01:00,28.0,16.0,-100.00,North,-999,-999.0,15.0,59,0.00,,,-99.99,0.000000,,2013-02-23 10:01:00,
2013-02-23 03:11:00,28.0,16.0,-100.00,North,-999,-999.0,18.0,60,0.00,,,-99.99,0.000000,,2013-02-23 10:11:00,
2013-02-23 03:21:00,28.0,16.0,-100.00,North,-999,-999.0,18.0,59,0.00,,,-99.99,0.000000,,2013-02-23 10:21:00,
2013-02-23 03:31:00,28.0,16.0,-100.00,North,-999,-999.0,19.0,59,0.00,,,-99.99,0.000000,,2013-02-23 10:31:00,
2013-02-23 03:41:00,28.0,16.0,-100.00,North,-999,-999.0,20.0,60,0.00,,,-99.99,0.000000,,2013-02-23 10:41:00,
2013-02-23 03:51:00,28.0,16.0,-100.00,North,-999,-999.0,19.0,59,0.00,,,-99.99,0.000000,,2013-02-23 10:51:00,
2013-02-23 04:01:00,28.0,16.0,-100.00,North,-999,-999.0,18.0,59,0.00,,,-99.99,0.000000,,2013-02-23 11:01:00,
2013-02-23 04:11:00,29.0,16.0,-100.00,North,-999,-999.0,17.0,58,0.00,,,-99.99,0.000000,,2013-02-23 11:11:00,
2013-02-23 04:21:00,29.0,15.0,-100.00,North,-999,-999.0,19.0,57,0.00,,,-99.99,0.000000,,2013-02-23 11:21:00,
2013-02-23 04:32:00,28.0,16.0,-100.00,North,-999,-999.0,19.0,59,0.00,,,-99.99,0.000000,,2013-02-23 11:32:00,
2013-02-23 04:41:00,28.0,15.0,-100.00,North,-999,-999.0,18.0,58,0.00,,,-99.99,0.000000,,2013-02-23 11:41:00,
2013-02-23 04:52:00,29.0,15.0,-100.00,North,-999,-999.0,19.0,55,0.00,,,-99.99,0.000000,,2013-02-23 11:52:00,
2013-02-23 05:01:00,29.0,17.0,-100.00,North,-999,-999.0,16.0,61,0.00,,,-99.99,0.000000,,2013-02-23 12:01:00,
2013-02-23 05:11:00,30.0,15.0,-100.00,North,-999,-999.0,13.0,53,0.00,,,-99.99,0.000000,,2013-02-23 12:11:00,
2013-02-23 05:21:00,31.0,16.0,-100.00,North,-999,-999.0,11.0,53,0.00,,,-99.99,0.000000,,2013-02-23 12:21:00,
2013-02-23 05:32:00,31.0,15.0,-100.00,North,-999,-999.0,12.0,51,0.00,,,-99.99,0.000000,,2013-02-23 12:32:00,
2013-02-23 05:41:00,32.0,16.0,-100.00,North,-999,-999.0,12.0,51,0.00,,,-99.99,0.000000,,2013-02-23 12:41:00,
2013-02-23 05:50:00,32.0,17.0,-100.00,North,-999,-999.0,15.0,53,0.00,,,-99.99,0.000000,,2013-02-23 12:50:00,
2013-02-23 05:52:00,32.0,17.0,-100.00,North,-999,-999.0,14.0,52,0.00,,,-99.99,0.000000,,2013-02-23 12:52:00,
2013-02-23 06:01:00,33.0,15.0,-100.00,North,-999,-999.0,15.0,48,0.00,,,-99.99,0.000000,,2013-02-23 13:01:00,
2013-02-23 06:11:00,32.0,17.0,-100.00,North,-999,-999.0,15.0,53,0.00,,,-99.99,0.000000,,2013-02-23 13:11:00,
2013-02-23 06:22:00,32.0,17.0,-100.00,North,-999,-999.0,15.0,53,0.00,,,-99.99,0.000000,,2013-02-23 13:22:00,
2013-02-23 06:31:00,32.0,17.0,-100.00,North,-999,-999.0,15.0,53,0.00,,,-99.99,0.000000,,2013-02-23 13:31:00,
2013-02-23 06:42:00,32.0,17.0,-100.00,North,-999,-999.0,15.0,53,0.00,,,-99.99,0.000000,,2013-02-23 13:42:00,
2013-02-23 07:22:00,31.0,16.0,-100.00,North,-999,-999.0,12.0,55,0.00,,,-99.99,1.000000,,2013-02-23 14:22:00,
2013-02-23 07:32:00,30.0,18.0,-100.00,North,-999,-999.0,12.0,60,0.00,,,-99.99,2.000000,,2013-02-23 14:32:00,
2013-02-23 07:42:00,31.0,17.0,-100.00,North,-999,-999.0,12.0,55,0.00,,,-99.99,7.000000,,2013-02-23 14:42:00,
2013-02-23 07:52:00,31.0,16.0,-100.00,North,-999,-999.0,12.0,53,0.00,,,-99.99,10.000000,,2013-02-23 14:52:00,
2013-02-23 08:01:00,32.0,17.0,-100.00,North,-999,-999.0,10.0,54,0.00,,,-99.99,16.000000,,2013-02-23 15:01:00,
2013-02-23 08:11:00,32.0,17.0,-100.00,North,-999,-999.0,8.0,54,0.00,,,-99.99,49.000000,,2013-02-23 15:11:00,
2013-02-23 08:21:00,33.0,16.0,-100.00,North,-999,-999.0,6.0,49,0.00,,,-99.99,63.000000,,2013-02-23 15:21:00,
2013-02-23 08:31:00,33.0,16.0,-100.00,North,-999,-999.0,8.0,49,0.00,,,-99.99,64.000000,,2013-02-23 15:31:00,
2013-02-23 08:41:00,31.0,18.0,-100.00,North,-999,-999.0,10.0,58,0.00,,,-99.99,63.000000,,2013-02-23 15:41:00,
2013-02-23 08:51:00,30.0,18.0,-100.00,North,-999,-999.0,8.0,59,0.00,,,-99.99,79.000000,,2013-02-23 15:51:00,
2013-02-23 09:01:00,31.0,19.0,-100.00,North,-999,-999.0,5.0,61,0.00,,,-99.99,93.000000,,2013-02-23 16:01:00,
2013-02-23 09:11:00,31.0,19.0,-100.00,North,-999,-999.0,5.0,60,0.00,,,-99.99,168.000000,,2013-02-23 16:11:00,
2013-02-23 09:21:00,35.0,18.0,-100.00,North,-999,-999.0,13.0,48,0.00,,,-99.99,166.000000,,2013-02-23 16:21:00,
2013-02-23 09:31:00,36.0,18.0,-100.00,North,-999,-999.0,15.0,46,0.00,,,-99.99,326.000000,,2013-02-23 16:31:00,
2013-02-23 09:42:00,36.0,18.0,-100.00,North,-999,-999.0,15.0,49,0.00,,,-99.99,144.000000,,2013-02-23 16:42:00,
2013-02-23 09:51:00,34.0,19.0,-100.00,North,-999,-999.0,16.0,53,0.00,,,-99.99,47.000000,,2013-02-23 16:51:00,
2013-02-23 10:01:00,34.0,19.0,-100.00,North,-999,-999.0,13.0,54,0.00,,,-99.99,209.000000,,2013-02-23 17:01:00,
2013-02-23 10:11:00,35.0,19.0,-100.00,North,-999,-999.0,14.0,52,0.00,,,-99.99,140.000000,,2013-02-23 17:11:00,
2013-02-23 10:21:00,35.0,20.0,-100.00,North,-999,-999.0,13.0,53,0.00,,,-99.99,61.000000,,2013-02-23 17:21:00,
2013-02-23 10:31:00,35.0,20.0,-100.00,North,-999,-999.0,13.0,54,0.00,,,-99.99,58.000000,,2013-02-23 17:31:00,
2013-02-23 10:41:00,36.0,20.0,-100.00,North,-999,-999.0,15.0,53,0.00,,,-99.99,34.000000,,2013-02-23 17:41:00,
2013-02-23 10:50:00,35.0,23.0,-100.00,North,-999,-999.0,16.0,59,0.00,,,-99.99,122.000000,,2013-02-23 17:50:00,
2013-02-23 10:52:00,35.0,22.0,-100.00,North,-999,-999.0,18.0,59,0.00,,,-99.99,113.000000,,2013-02-23 17:52:00,
2013-02-23 11:01:00,36.0,22.0,-100.00,North,-999,-999.0,12.0,56,0.00,,,-99.99,98.000000,,2013-02-23 18:01:00,
2013-02-23 11:12:00,35.0,23.0,-100.00,North,-999,-999.0,16.0,59,0.00,,,-99.99,122.000000,,2013-02-23 18:12:00,
2013-02-23 11:21:00,35.0,23.0,-100.00,North,-999,-999.0,16.0,59,0.00,,,-99.99,122.000000,,2013-02-23 18:21:00,
2013-02-23 11:31:00,35.0,23.0,-100.00,North,-999,-999.0,16.0,59,0.00,,,-99.99,122.000000,,2013-02-23 18:31:00,
2013-02-23 11:41:00,35.0,23.0,-100.00,North,-999,-999.0,16.0,59,0.00,,,-99.99,122.000000,,2013-02-23 18:41:00,
2013-02-23 12:21:00,35.0,23.0,-100.00,North,-999,-999.0,18.0,61,0.00,,,-99.99,164.000000,,2013-02-23 19:21:00,
2013-02-23 12:32:00,35.0,24.0,-100.00,North,-999,-999.0,21.0,66,0.00,,,-99.99,97.000000,,2013-02-23 19:32:00,
2013-02-23 12:42:00,33.0,23.0,-100.00,North,-999,-999.0,20.0,66,0.00,,,-99.99,155.000000,,2013-02-23 19:42:00,
2013-02-23 12:52:00,33.0,23.0,-100.00,North,-999,-999.0,16.0,65,0.00,,,-99.99,136.000000,,2013-02-23 19:52:00,
2013-02-23 13:01:00,32.0,21.0,-100.00,North,-999,-999.0,17.0,63,0.00,,,-99.99,152.000000,,2013-02-23 20:01:00,
2013-02-23 13:11:00,32.0,18.0,-100.00,North,-999,-999.0,18.0,55,0.00,,,-99.99,123.000000,,2013-02-23 20:11:00,
2013-02-23 13:21:00,32.0,19.0,-100.00,North,-999,-999.0,18.0,59,0.00,,,-99.99,78.000000,,2013-02-23 20:21:00,
2013-02-23 13:31:00,31.0,20.0,-100.00,North,-999,-999.0,21.0,65,0.00,,,-99.99,88.000000,,2013-02-23 20:31:00,
2013-02-23 13:41:00,29.0,24.0,-100.00,North,-999,-999.0,15.0,82,0.00,,,-99.99,92.000000,,2013-02-23 20:41:00,
2013-02-23 13:52:00,29.0,24.0,-100.00,North,-999,-999.0,10.0,81,0.00,,,-99.99,134.000000,,2013-02-23 20:52:00,
2013-02-23 14:01:00,29.0,23.0,-100.00,North,-999,-999.0,9.0,77,0.00,,,-99.99,159.000000,,2013-02-23 21:01:00,
2013-02-23 14:11:00,30.0,23.0,-100.00,North,-999,-999.0,7.0,73,0.00,,,-99.99,168.000000,,2013-02-23 21:11:00,
2013-02-23 14:21:00,31.0,20.0,-100.00,North,-999,-999.0,10.0,63,0.00,,,-99.99,171.000000,,2013-02-23 21:21:00,
2013-02-23 14:31:00,31.0,16.0,-100.00,North,-999,-999.0,11.0,53,0.00,,,-99.99,230.000000,,2013-02-23 21:31:00,
2013-02-23 14:41:00,32.0,17.0,-100.00,North,-999,-999.0,14.0,54,0.00,,,-99.99,245.000000,,2013-02-23 21:41:00,
2013-02-23 14:51:00,32.0,15.0,-100.00,North,-999,-999.0,13.0,50,0.00,,,-99.99,262.000000,,2013-02-23 21:51:00,
2013-02-23 15:01:00,32.0,15.0,-100.00,North,-999,-999.0,13.0,49,0.00,,,-99.99,273.000000,,2013-02-23 22:01:00,
2013-02-23 15:11:00,32.0,14.0,-100.00,North,-999,-999.0,16.0,48,0.00,,,-99.99,219.000000,,2013-02-23 22:11:00,
2013-02-23 15:21:00,31.0,14.0,-100.00,North,-999,-999.0,16.0,48,0.00,,,-99.99,216.000000,,2013-02-23 22:21:00,
2013-02-23 15:31:00,31.0,13.0,-100.00,North,-999,-999.0,17.0,47,0.00,,,-99.99,234.000000,,2013-02-23 22:31:00,
2013-02-23 15:41:00,30.0,16.0,-100.00,North,-999,-999.0,20.0,55,0.00,,,-99.99,161.000000,,2013-02-23 22:41:00,
2013-02-23 15:50:00,30.0,18.0,-100.00,North,-999,-999.0,15.0,60,0.00,,,-99.99,207.000000,,2013-02-23 22:50:00,
2013-02-23 15:51:00,30.0,18.0,-100.00,North,-999,-999.0,13.0,62,0.00,,,-99.99,163.000000,,2013-02-23 22:51:00,
2013-02-23 16:01:00,30.0,18.0,-100.00,North,-999,-999.0,17.0,60,0.00,,,-99.99,131.000000,,2013-02-23 23:01:00,
2013-02-23 16:11:00,30.0,18.0,-100.00,North,-999,-999.0,15.0,60,0.00,,,-99.99,207.000000,,2013-02-23 23:11:00,
2013-02-23 16:21:00,30.0,18.0,-100.00,North,-999,-999.0,15.0,60,0.00,,,-99.99,207.000000,,2013-02-23 23:21:00,
2013-02-23 16:31:00,30.0,18.0,-100.00,North,-999,-999.0,15.0,60,0.00,,,-99.99,207.000000,,2013-02-23 23:31:00,
2013-02-23 16:41:00,30.0,18.0,-100.00,North,-999,-999.0,15.0,60,0.00,,,-99.99,207.000000,,2013-02-23 23:41:00,
2013-02-23 17:22:00,30.0,16.0,-100.00,North,-999,-999.0,12.0,55,0.00,,,-99.99,100.000000,,2013-02-24 00:22:00,
2013-02-23 17:32:00,30.0,16.0,-100.00,North,-999,-999.0,11.0,55,0.00,,,-99.99,92.000000,,2013-02-24 00:32:00,
2013-02-23 17:42:00,29.0,17.0,-100.00,North,-999,-999.0,13.0,61,0.00,,,-99.99,36.000000,,2013-02-24 00:42:00,
2013-02-23 17:52:00,29.0,18.0,-100.00,North,-999,-999.0,6.0,62,0.00,,,-99.99,32.000000,,2013-02-24 00:52:00,
2013-02-23 18:01:00,29.0,15.0,-100.00,North,-999,-999.0,14.0,56,0.00,,,-99.99,44.000000,,2013-02-24 01:01:00,
2013-02-23 18:11:00,28.0,19.0,-100.00,North,-999,-999.0,14.0,70,0.00,,,-99.99,33.000000,,2013-02-24 01:11:00,
2013-02-23 18:21:00,27.0,18.0,-100.00,North,-999,-999.0,13.0,68,0.00,,,-99.99,17.000000,,2013-02-24 01:21:00,
2013-02-23 18:31:00,27.0,18.0,-100.00,North,-999,-999.0,14.0,68,0.00,,,-99.99,6.000000,,2013-02-24 01:31:00,
2013-02-23 18:41:00,27.0,17.0,-100.00,North,-999,-999.0,11.0,66,0.00,,,-99.99,2.000000,,2013-02-24 01:41:00,
2013-02-23 18:51:00,27.0,16.0,-100.00,North,-999,-999.0,13.0,64,0.00,,,-99.99,0.000000,,2013-02-24 01:51:00,
2013-02-23 19:01:00,27.0,16.0,-100.00,North,-999,-999.0,11.0,63,0.00,,,-99.99,0.000000,,2013-02-24 02:01:00,
2013-02-23 19:11:00,27.0,16.0,-100.00,North,-999,-999.0,10.0,62,0.00,,,-99.99,0.000000,,2013-02-24 02:11:00,
2013-02-23 19:21:00,26.0,16.0,-100.00,North,-999,-999.0,13.0,64,0.00,,,-99.99,0.000000,,2013-02-24 02:21:00,
2013-02-23 19:31:00,26.0,16.0,-100.00,North,-999,-999.0,11.0,67,0.00,,,-99.99,0.000000,,2013-02-24 02:31:00,
2013-02-23 19:41:00,26.0,16.0,-100.00,North,-999,-999.0,10.0,66,0.00,,,-99.99,0.000000,,2013-02-24 02:41:00,
2013-02-23 19:51:00,26.0,16.0,-100.00,North,-999,-999.0,10.0,66,0.00,,,-99.99,0.000000,,2013-02-24 02:51:00,
2013-02-23 20:01:00,26.0,15.0,-100.00,North,-999,-999.0,7.0,65,0.00,,,-99.99,0.000000,,2013-02-24 03:01:00,
2013-02-23 20:11:00,26.0,15.0,-100.00,North,-999,-999.0,10.0,64,0.00,,,-99.99,0.000000,,2013-02-24 03:11:00,
2013-02-23 20:21:00,26.0,16.0,-100.00,North,-999,-999.0,10.0,65,0.00,,,-99.99,0.000000,,2013-02-24 03:21:00,
2013-02-23 20:31:00,26.0,17.0,-100.00,North,-999,-999.0,7.0,68,0.00,,,-99.99,0.000000,,2013-02-24 03:31:00,
2013-02-23 20:42:00,26.0,18.0,-100.00,North,-999,-999.0,7.0,71,0.00,,,-99.99,0.000000,,2013-02-24 03:42:00,
2013-02-23 20:50:00,25.0,20.0,-100.00,North,-999,-999.0,6.0,81,0.00,,,-99.99,0.000000,,2013-02-24 03:50:00,
2013-02-23 20:52:00,25.0,18.0,-100.00,North,-999,-999.0,7.0,74,0.00,,,-99.99,0.000000,,2013-02-24 03:52:00,
2013-02-23 21:01:00,25.0,19.0,-100.00,North,-999,-999.0,8.0,76,0.00,,,-99.99,0.000000,,2013-02-24 04:01:00,
2013-02-23 21:11:00,25.0,20.0,-100.00,North,-999,-999.0,6.0,81,0.00,,,-99.99,0.000000,,2013-02-24 04:11:00,
2013-02-23 21:21:00,25.0,20.0,-100.00,North,-999,-999.0,6.0,81,0.00,,,-99.99,0.000000,,2013-02-24 04:21:00,
2013-02-23 21:31:00,25.0,20.0,-100.00,North,-999,-999.0,6.0,81,0.00,,,-99.99,0.000000,,2013-02-24 04:31:00,
2013-02-23 21:41:00,25.0,20.0,-100.00,North,-999,-999.0,6.0,81,0.00,,,-99.99,0.000000,,2013-02-24 04:41:00,
2013-02-23 22:22:00,25.0,18.0,-100.00,North,-999,-999.0,6.0,74,0.00,,,-99.99,0.000000,,2013-02-24 05:22:00,
2013-02-23 22:32:00,25.0,19.0,-100.00,North,-999,-999.0,7.0,77,0.00,,,-99.99,0.000000,,2013-02-24 05:32:00,
2013-02-23 22:42:00,25.0,19.0,-100.00,North,-999,-999.0,7.0,79,0.00,,,-99.99,0.000000,,2013-02-24 05:42:00,
2013-02-23 22:52:00,25.0,19.0,-100.00,North,-999,-999.0,8.0,78,0.00,,,-99.99,0.000000,,2013-02-24 05:52:00,
2013-02-23 23:01:00,25.0,19.0,-100.00,North,-999,-999.0,6.0,79,0.00,,,-99.99,0.000000,,2013-02-24 06:01:00,
2013-02-23 23:11:00,25.0,19.0,-100.00,North,-999,-999.0,6.0,79,0.00,,,-99.99,0.000000,,2013-02-24 06:11:00,
2013-02-23 23:21:00,25.0,19.0,-100.00,North,-999,-999.0,5.0,79,0.00,,,-99.99,0.000000,,2013-02-24 06:21:00,
2013-02-23 23:31:00,25.0,19.0,-100.00,North,-999,-999.0,4.0,79,0.00,,,-99.99,0.000000,,2013-02-24 06:31:00,
2013-02-23 23:41:00,25.0,19.0,-100.00,North,-999,-999.0,3.0,80,0.00,,,-99.99,0.000000,,2013-02-24 06:41:00,
2013-02-23 23:52:00,24.0,19.0,-100.00,North,-999,-999.0,2.0,82,0.00,,,-99.99,0.000000,,2013-02-24 06:52:00,